Time;durP1;ratioP1;P1;durP2;ratioP2;P2;SDS_P1;SDS_P2;PMS_P1;PMS_P2;Temp;Humidity;BMP_temperature;BMP_pressure;BME280_temperature;BME280_humidity;BME280_pressure;Samples;Min_cycle;Max_cycle;Signal;HPM_P1;HPM_P2
2020/12/17 00:02:09;;;;;;;298.87;115.13;;;2.20;99.90;;;;;;4440183;28;660504;-62
2020/12/17 00:04:56;;;;;;;293.00;114.88;;;2.20;99.90;;;;;;4461113;28;661564;-61
2020/12/17 00:07:43;;;;;;;291.25;115.57;;;2.20;99.90;;;;;;4450545;28;660387;-60
2020/12/17 00:10:31;;;;;;;289.13;111.53;;;2.20;99.90;;;;;;4440885;28;660561;-61
2020/12/17 00:13:18;;;;;;;277.60;110.17;;;2.20;99.90;;;;;;4459192;28;661178;-60
2020/12/17 00:16:05;;;;;;;289.93;113.00;;;2.20;99.90;;;;;;4434922;28;661098;-60
2020/12/17 00:18:52;;;;;;;287.13;110.57;;;2.20;99.90;;;;;;4450700;28;662212;-60
2020/12/17 00:21:39;;;;;;;297.50;115.57;;;2.20;99.90;;;;;;4438127;28;660489;-62
2020/12/17 00:24:26;;;;;;;294.70;116.87;;;2.20;99.90;;;;;;4454955;28;661474;-61
2020/12/17 00:27:14;;;;;;;283.47;111.57;;;2.20;99.90;;;;;;4457963;28;660737;-60
2020/12/17 00:30:01;;;;;;;287.57;111.97;;;2.10;99.90;;;;;;4439833;28;662106;-60
2020/12/17 00:32:48;;;;;;;308.60;116.97;;;2.10;99.90;;;;;;4465326;28;660688;-60
2020/12/17 00:35:35;;;;;;;329.67;120.23;;;2.20;99.90;;;;;;4440646;28;660555;-61
2020/12/17 00:38:22;;;;;;;317.67;115.90;;;2.20;99.90;;;;;;4457342;28;662992;-60
2020/12/17 00:41:12;;;;;;;315.52;119.72;;;2.10;99.90;;;;;;4439245;28;660629;-62
2020/12/17 00:44:00;;;;;;;268.20;104.45;;;2.20;99.90;;;;;;4435008;28;660858;-62
2020/12/17 00:46:50;;;;;;;256.60;101.40;;;2.20;99.90;;;;;;4454424;28;661502;-60
2020/12/17 00:49:37;;;;;;;259.30;101.97;;;2.20;99.90;;;;;;4425054;28;661947;-60
2020/12/17 00:52:24;;;;;;;230.30;92.67;;;2.20;99.90;;;;;;4443347;28;660782;-62
2020/12/17 00:55:11;;;;;;;269.73;100.23;;;2.20;99.90;;;;;;4457889;28;660828;-60
2020/12/17 00:57:59;;;;;;;279.33;104.67;;;2.20;99.90;;;;;;4451820;28;660836;-62
2020/12/17 01:00:47;;;;;;;258.10;101.88;;;2.30;99.90;;;;;;4455450;28;662030;-60
2020/12/17 01:03:34;;;;;;;264.43;104.57;;;2.30;99.90;;;;;;4438119;28;661869;-62
2020/12/17 01:06:21;;;;;;;262.50;105.80;;;2.30;99.90;;;;;;4456027;28;662395;-60
2020/12/17 01:09:09;;;;;;;268.37;106.40;;;2.20;99.90;;;;;;4458080;28;661289;-62
2020/12/17 01:11:56;;;;;;;271.45;106.35;;;2.20;99.90;;;;;;4433377;28;661611;-61
2020/12/17 01:14:43;;;;;;;269.27;104.57;;;2.20;99.90;;;;;;4449835;28;660584;-60
2020/12/17 01:17:31;;;;;;;256.20;103.37;;;2.20;99.90;;;;;;4432942;28;661264;-60
2020/12/17 01:20:18;;;;;;;248.37;100.43;;;2.20;99.90;;;;;;4457470;28;661876;-60
2020/12/17 01:23:05;;;;;;;269.20;100.43;;;2.20;99.90;;;;;;4440908;28;660632;-60
2020/12/17 01:25:52;;;;;;;257.27;101.87;;;2.20;99.90;;;;;;4457336;28;661612;-61
2020/12/17 01:28:40;;;;;;;244.10;98.07;;;2.20;99.90;;;;;;4442296;28;660654;-62
2020/12/17 01:31:27;;;;;;;218.97;87.87;;;2.20;99.90;;;;;;4461741;28;660596;-60
2020/12/17 01:34:15;;;;;;;221.63;87.47;;;2.20;99.90;;;;;;4448441;28;659673;-62
2020/12/17 01:37:02;;;;;;;207.25;84.40;;;2.20;99.90;;;;;;4449636;28;660924;-61
2020/12/17 01:39:49;;;;;;;203.77;82.97;;;2.20;99.90;;;;;;4439464;28;659568;-63
2020/12/17 01:42:36;;;;;;;213.87;79.97;;;2.10;99.90;;;;;;4450060;28;661536;-60
2020/12/17 01:45:23;;;;;;;193.03;77.90;;;2.20;99.90;;;;;;4456593;28;660884;-60
2020/12/17 01:48:11;;;;;;;211.10;81.67;;;2.20;99.90;;;;;;4431730;28;660195;-60
2020/12/17 01:50:58;;;;;;;221.23;87.43;;;2.30;99.90;;;;;;4458793;28;659961;-60
2020/12/17 01:53:45;;;;;;;220.93;87.73;;;2.20;99.90;;;;;;4437677;28;661086;-60
2020/12/17 01:56:32;;;;;;;222.23;88.03;;;2.30;99.90;;;;;;4457629;28;659645;-60
2020/12/17 01:59:22;;;;;;;229.83;88.90;;;2.30;99.90;;;;;;4439904;28;660239;-61
2020/12/17 02:02:10;;;;;;;236.37;93.20;;;2.20;99.90;;;;;;4435022;28;661129;-62
2020/12/17 02:04:57;;;;;;;225.17;90.43;;;2.10;99.90;;;;;;4453368;28;659958;-61
2020/12/17 02:07:45;;;;;;;242.03;94.60;;;2.10;99.90;;;;;;4444415;28;660789;-63
2020/12/17 02:10:32;;;;;;;224.67;88.70;;;2.10;99.90;;;;;;4456141;28;660487;-60
2020/12/17 02:13:32;;;;;;;226.13;89.03;;;2.10;99.90;;;;;;4442745;28;659509;-62
2020/12/17 02:16:19;;;;;;;214.75;86.30;;;2.10;99.90;;;;;;4414462;28;661166;-62
2020/12/17 02:19:06;;;;;;;197.63;79.90;;;2.10;99.90;;;;;;4461306;28;660804;-61
2020/12/17 02:21:54;;;;;;;214.77;85.77;;;2.10;99.90;;;;;;4447944;28;660469;-60
2020/12/17 02:24:42;;;;;;;212.57;83.53;;;2.20;99.90;;;;;;4437947;28;661018;-61
2020/12/17 02:27:29;;;;;;;190.20;81.43;;;2.10;99.90;;;;;;4441013;28;661141;-62
2020/12/17 02:30:16;;;;;;;207.57;82.83;;;2.10;99.90;;;;;;4460255;28;659580;-60
2020/12/17 02:33:03;;;;;;;199.03;83.27;;;2.10;99.90;;;;;;4455845;28;659628;-60
2020/12/17 02:35:50;;;;;;;210.65;80.85;;;2.10;99.90;;;;;;4437451;28;659553;-60
2020/12/17 02:38:37;;;;;;;193.60;78.63;;;2.20;99.90;;;;;;4450894;28;661180;-61
2020/12/17 02:41:25;;;;;;;179.63;74.47;;;2.20;99.90;;;;;;4437303;28;660237;-63
2020/12/17 02:44:13;;;;;;;179.77;71.88;;;2.20;99.90;;;;;;4447612;28;661426;-61
2020/12/17 02:47:00;;;;;;;167.43;67.55;;;2.20;99.90;;;;;;4437283;28;660384;-60
2020/12/17 02:49:48;;;;;;;159.37;61.83;;;2.20;99.90;;;;;;4460627;28;661266;-60
2020/12/17 02:52:35;;;;;;;144.13;55.67;;;2.20;99.90;;;;;;4424737;28;659681;-61
2020/12/17 02:55:22;;;;;;;132.93;52.73;;;2.20;99.90;;;;;;4462091;28;660226;-61
2020/12/17 02:58:10;;;;;;;134.47;52.70;;;2.20;99.90;;;;;;4451475;28;659984;-63
2020/12/17 03:00:57;;;;;;;158.93;62.13;;;2.20;99.90;;;;;;4446974;28;661852;-60
2020/12/17 03:03:44;;;;;;;158.73;62.67;;;2.30;99.90;;;;;;4442308;28;659658;-63
2020/12/17 03:06:31;;;;;;;149.93;60.53;;;2.30;99.90;;;;;;4454401;28;660124;-60
2020/12/17 03:09:18;;;;;;;150.83;60.20;;;2.30;99.90;;;;;;4449610;28;660642;-60
2020/12/17 03:12:05;;;;;;;140.70;56.37;;;2.20;99.90;;;;;;4431797;28;660434;-61
2020/12/17 03:14:53;;;;;;;131.83;53.87;;;2.20;99.90;;;;;;4458729;28;660216;-60
2020/12/17 03:17:40;;;;;;;131.47;52.20;;;2.30;99.90;;;;;;4437159;28;659904;-61
2020/12/17 03:20:27;;;;;;;141.73;57.27;;;2.30;99.90;;;;;;4458055;28;661559;-60
2020/12/17 03:23:14;;;;;;;154.07;59.22;;;2.30;99.90;;;;;;4441923;28;660813;-62
2020/12/17 03:26:01;;;;;;;152.10;61.00;;;2.30;99.90;;;;;;4454532;28;659758;-61
2020/12/17 03:28:48;;;;;;;144.53;56.33;;;2.30;99.90;;;;;;4464517;28;659509;-60
2020/12/17 03:31:36;;;;;;;179.87;68.33;;;2.30;99.90;;;;;;4436640;28;660144;-60
2020/12/17 03:34:22;;;;;;;175.00;64.77;;;2.30;99.90;;;;;;4456054;28;660888;-61
2020/12/17 03:37:10;;;;;;;180.57;67.70;;;2.30;99.90;;;;;;4427862;28;659702;-61
2020/12/17 03:39:57;;;;;;;155.03;58.17;;;2.30;99.90;;;;;;4448622;28;660693;-61
2020/12/17 03:42:44;;;;;;;160.17;58.27;;;2.30;99.90;;;;;;4444018;28;659654;-63
2020/12/17 03:45:31;;;;;;;162.07;56.60;;;2.30;99.90;;;;;;4457126;28;659249;-62
2020/12/17 03:48:19;;;;;;;160.60;58.43;;;2.30;99.90;;;;;;4455420;28;659959;-60
2020/12/17 03:51:05;;;;;;;158.03;56.73;;;2.30;99.90;;;;;;4425371;28;661017;-60
2020/12/17 03:53:52;;;;;;;154.70;55.63;;;2.30;99.90;;;;;;4451388;28;660902;-60
2020/12/17 03:56:39;;;;;;;169.13;54.97;;;2.30;99.90;;;;;;4437127;28;659666;-61
2020/12/17 03:59:26;;;;;;;167.80;54.53;;;2.30;99.90;;;;;;4456068;28;660941;-61
2020/12/17 04:02:13;;;;;;;188.73;59.17;;;2.30;99.90;;;;;;4454642;28;660640;-60
2020/12/17 04:05:02;;;;;;;173.53;58.87;;;2.30;99.90;;;;;;4432955;28;659444;-61
2020/12/17 04:07:49;;;;;;;201.53;62.87;;;2.40;99.90;;;;;;4436829;28;659383;-63
2020/12/17 04:10:36;;;;;;;205.10;62.73;;;2.30;99.90;;;;;;4454839;28;661435;-60
2020/12/17 04:13:23;;;;;;;202.70;64.47;;;2.30;99.90;;;;;;4462204;28;659377;-61
2020/12/17 04:16:10;;;;;;;210.77;64.77;;;2.30;99.90;;;;;;4443903;28;659128;-61
2020/12/17 04:18:57;;;;;;;209.60;62.47;;;2.30;99.90;;;;;;4452623;28;661170;-60
2020/12/17 04:21:45;;;;;;;203.47;58.20;;;2.30;99.90;;;;;;4439967;28;659683;-62
2020/12/17 04:24:32;;;;;;;210.23;62.30;;;2.30;99.90;;;;;;4454531;28;660456;-61
2020/12/17 04:27:19;;;;;;;208.30;62.37;;;2.30;99.90;;;;;;4436750;28;661275;-62
2020/12/17 04:30:06;;;;;;;216.57;62.53;;;2.30;99.90;;;;;;4456337;28;660944;-60
2020/12/17 04:32:53;;;;;;;266.03;75.93;;;2.30;99.90;;;;;;4455739;28;660919;-60
2020/12/17 04:35:40;;;;;;;239.83;66.57;;;2.30;99.90;;;;;;4435623;28;659497;-60
2020/12/17 04:38:28;;;;;;;190.57;57.17;;;2.30;99.90;;;;;;4450171;28;662408;-61
2020/12/17 04:41:15;;;;;;;184.60;51.77;;;2.30;99.90;;;;;;4441869;28;659594;-60
2020/12/17 04:44:02;;;;;;;179.43;50.67;;;2.30;99.90;;;;;;4451301;28;659893;-61
2020/12/17 04:46:56;;;;;;;181.17;51.73;;;2.30;99.90;;;;;;4437810;28;659634;-63
2020/12/17 04:49:49;;;;;;;160.43;46.80;;;2.30;99.90;;;;;;4429633;28;660607;-60
2020/12/17 04:52:37;;;;;;;147.80;42.37;;;2.20;99.90;;;;;;4439553;28;659436;-60
2020/12/17 04:55:25;;;;;;;139.30;39.87;;;2.20;99.90;;;;;;4438040;28;660239;-62
2020/12/17 04:58:12;;;;;;;137.20;38.07;;;2.20;99.90;;;;;;4465347;28;659616;-60
2020/12/17 05:01:01;;;;;;;145.52;42.22;;;2.20;99.90;;;;;;4435584;28;659757;-63
2020/12/17 05:03:49;;;;;;;122.03;36.37;;;2.20;99.90;;;;;;4457876;28;660120;-61
2020/12/17 05:06:36;;;;;;;145.63;41.60;;;2.20;99.90;;;;;;4431917;28;661216;-61
2020/12/17 05:09:23;;;;;;;140.97;39.93;;;2.20;99.90;;;;;;4450991;28;659865;-60
2020/12/17 05:12:11;;;;;;;121.87;35.60;;;2.10;99.90;;;;;;4443767;28;659679;-62
2020/12/17 05:14:58;;;;;;;114.73;36.53;;;2.10;99.90;;;;;;4464687;28;660945;-61
2020/12/17 05:17:48;;;;;;;252.53;41.27;;;2.10;99.90;;;;;;4439149;28;660034;-61
2020/12/17 05:20:37;;;;;;;124.53;37.50;;;2.10;99.90;;;;;;4438629;28;660167;-60
2020/12/17 05:23:24;;;;;;;138.87;39.90;;;2.10;99.90;;;;;;4439582;28;659902;-63
2020/12/17 05:26:11;;;;;;;136.90;40.83;;;2.00;99.90;;;;;;4454599;28;660300;-62
2020/12/17 05:28:59;;;;;;;160.33;42.00;;;2.00;99.90;;;;;;4458130;28;660376;-61
2020/12/17 05:31:46;;;;;;;141.48;40.90;;;2.00;99.90;;;;;;4442490;28;660926;-61
2020/12/17 05:34:34;;;;;;;137.50;40.53;;;1.90;99.90;;;;;;4449585;28;659537;-61
2020/12/17 05:37:21;;;;;;;149.17;43.40;;;1.90;99.90;;;;;;4439905;28;661896;-61
2020/12/17 05:40:11;;;;;;;166.30;44.90;;;1.80;99.90;;;;;;4457122;28;659782;-61
2020/12/17 05:42:59;;;;;;;153.67;44.27;;;1.80;99.90;;;;;;4461176;28;659887;-63
2020/12/17 05:45:47;;;;;;;163.40;46.27;;;1.90;99.90;;;;;;4454885;28;659601;-61
2020/12/17 05:48:34;;;;;;;156.23;43.40;;;1.80;99.90;;;;;;4440825;28;659898;-62
2020/12/17 05:51:21;;;;;;;163.63;45.73;;;1.80;99.90;;;;;;4465837;28;661188;-61
2020/12/17 05:54:21;;;;;;;180.67;45.37;;;1.80;99.90;;;;;;4457104;28;659588;-61
2020/12/17 05:57:09;;;;;;;150.13;40.53;;;1.80;99.90;;;;;;4434404;28;661133;-61
2020/12/17 05:59:56;;;;;;;160.87;42.43;;;1.90;99.90;;;;;;4435750;28;661804;-60
2020/12/17 06:02:44;;;;;;;164.80;42.37;;;1.90;99.90;;;;;;4456847;28;659975;-61
2020/12/17 06:05:31;;;;;;;148.17;41.00;;;1.90;99.90;;;;;;4432104;28;661629;-61
2020/12/17 06:08:18;;;;;;;193.63;46.10;;;1.90;99.90;;;;;;4450459;28;661334;-61
2020/12/17 06:11:06;;;;;;;161.82;42.45;;;1.90;99.90;;;;;;4440922;28;659685;-61
2020/12/17 06:13:54;;;;;;;204.27;46.03;;;1.80;99.90;;;;;;4458788;28;660496;-61
2020/12/17 06:16:42;;;;;;;211.13;48.50;;;1.80;99.90;;;;;;4432265;28;660780;-62
2020/12/17 06:19:31;;;;;;;267.37;59.53;;;1.80;99.90;;;;;;4437188;28;659605;-61
2020/12/17 06:22:17;;;;;;;182.70;43.40;;;1.80;99.90;;;;;;4457677;28;660175;-62
2020/12/17 06:25:04;;;;;;;154.03;39.50;;;1.80;99.90;;;;;;4432613;28;659704;-61
2020/12/17 06:27:52;;;;;;;207.27;48.77;;;1.80;99.90;;;;;;4457491;28;660200;-61
2020/12/17 06:30:39;;;;;;;174.13;44.17;;;1.80;99.90;;;;;;4437683;28;659614;-63
2020/12/17 06:33:26;;;;;;;161.33;42.10;;;1.80;99.90;;;;;;4456495;28;661003;-61
2020/12/17 06:36:27;;;;;;;171.63;39.97;;;1.70;99.90;;;;;;4452097;28;660242;-61
2020/12/17 06:39:14;;;;;;;134.83;35.63;;;1.70;99.90;;;;;;4414296;28;659420;-61
2020/12/17 06:42:01;;;;;;;124.20;33.57;;;1.70;99.90;;;;;;4448560;28;661583;-61
2020/12/17 06:44:48;;;;;;;125.23;32.20;;;1.80;99.90;;;;;;4457417;28;659972;-61
2020/12/17 06:47:35;;;;;;;128.90;33.33;;;1.90;99.90;;;;;;4440054;28;661435;-61
2020/12/17 06:50:24;;;;;;;131.17;35.80;;;1.80;99.90;;;;;;4457270;28;660170;-60
2020/12/17 06:53:12;;;;;;;132.97;35.40;;;1.80;99.90;;;;;;4433339;28;660652;-61
2020/12/17 06:55:59;;;;;;;134.43;36.27;;;1.80;99.90;;;;;;4429523;28;659749;-61
2020/12/17 06:58:46;;;;;;;151.57;36.27;;;1.80;99.90;;;;;;4456243;28;661533;-61
2020/12/17 07:01:37;;;;;;;153.27;39.97;;;1.80;99.90;;;;;;4446956;28;659559;-63
2020/12/17 07:04:52;;;;;;;179.23;46.10;;;1.80;99.90;;;;;;4444778;28;659719;-64
2020/12/17 07:07:44;;;;;;;184.93;46.53;;;1.80;99.90;;;;;;4414436;28;660681;-61
2020/12/17 07:10:32;;;;;;;236.95;50.63;;;1.80;99.90;;;;;;4428224;28;660565;-61
2020/12/17 07:13:40;;;;;;;175.20;43.30;;;1.80;99.90;;;;;;4428777;28;659628;-61
2020/12/17 07:16:27;;;;;;;460.23;81.37;;;1.80;99.90;;;;;;4430492;28;660625;-61
2020/12/17 07:19:19;;;;;;;212.47;49.80;;;1.80;99.90;;;;;;4443660;28;659800;-61
2020/12/17 07:22:06;;;;;;;228.93;50.80;;;1.80;99.90;;;;;;4438124;28;662298;-61
2020/12/17 07:24:54;;;;;;;234.70;48.43;;;1.70;99.90;;;;;;4454174;28;660129;-61
2020/12/17 07:27:42;;;;;;;189.53;46.33;;;1.80;99.90;;;;;;4434695;28;661643;-61
2020/12/17 07:30:29;;;;;;;179.13;45.65;;;1.90;99.90;;;;;;4437803;28;659687;-62
2020/12/17 07:33:43;;;;;;;183.90;43.40;;;1.80;99.90;;;;;;4458559;28;661080;-62
2020/12/17 07:36:45;;;;;;;173.47;40.83;;;1.70;99.90;;;;;;4410822;28;660503;-62
2020/12/17 07:39:32;;;;;;;186.80;41.63;;;1.80;99.90;;;;;;4435945;28;660442;-61
2020/12/17 07:42:19;;;;;;;182.90;41.77;;;1.70;99.90;;;;;;4445593;28;659790;-63
2020/12/17 07:45:07;;;;;;;183.83;46.17;;;1.70;99.90;;;;;;4458623;28;661072;-62
2020/12/17 07:47:54;;;;;;;178.73;40.57;;;1.70;99.90;;;;;;4428808;28;659492;-62
2020/12/17 07:50:41;;;;;;;150.93;39.37;;;1.70;99.90;;;;;;4463656;28;659874;-61
2020/12/17 07:53:28;;;;;;;170.37;41.47;;;1.70;99.90;;;;;;4446653;28;659901;-61
2020/12/17 07:56:15;;;;;;;171.00;42.27;;;1.60;99.90;;;;;;4443308;28;660432;-62
2020/12/17 07:59:05;;;;;;;163.50;41.10;;;1.60;99.90;;;;;;4451794;28;660205;-62
2020/12/17 08:01:58;;;;;;;151.23;38.30;;;1.60;99.90;;;;;;4433067;28;660273;-62
2020/12/17 08:04:46;;;;;;;149.87;36.90;;;1.60;99.90;;;;;;4409907;28;661056;-62
2020/12/17 08:07:38;;;;;;;160.07;41.13;;;1.60;99.90;;;;;;4457452;28;660036;-62
2020/12/17 08:10:25;;;;;;;161.60;44.93;;;1.60;99.90;;;;;;4408719;28;660525;-62
2020/12/17 08:13:12;;;;;;;158.03;40.63;;;1.60;99.90;;;;;;4458556;28;660889;-62
2020/12/17 08:16:00;;;;;;;152.37;44.47;;;1.70;99.90;;;;;;4435192;28;659705;-63
2020/12/17 08:18:53;;;;;;;150.83;43.63;;;1.70;99.90;;;;;;4469139;28;661012;-61
2020/12/17 08:21:41;;;;;;;158.70;43.47;;;1.80;99.90;;;;;;4432482;28;660594;-61
2020/12/17 08:24:28;;;;;;;144.10;39.67;;;1.80;99.90;;;;;;4453694;28;659376;-61
2020/12/17 08:27:15;;;;;;;134.03;37.50;;;1.80;99.90;;;;;;4440938;28;659291;-61
2020/12/17 08:30:03;;;;;;;137.50;38.43;;;1.90;99.90;;;;;;4458630;28;660501;-62
2020/12/17 08:32:51;;;;;;;139.40;38.90;;;1.90;99.90;;;;;;4436778;28;659933;-63
2020/12/17 08:35:39;;;;;;;141.23;40.43;;;1.90;99.90;;;;;;4452364;28;660021;-61
2020/12/17 08:38:26;;;;;;;120.77;35.13;;;1.90;99.90;;;;;;4443595;28;661296;-63
2020/12/17 08:41:13;;;;;;;104.13;32.83;;;2.00;99.90;;;;;;4457534;28;660011;-61
2020/12/17 08:44:03;;;;;;;125.67;38.40;;;2.00;99.90;;;;;;4429163;28;660959;-61
2020/12/17 08:46:52;;;;;;;126.37;38.93;;;2.00;99.90;;;;;;4440784;28;659730;-62
2020/12/17 08:49:39;;;;;;;113.80;37.70;;;2.10;99.90;;;;;;4441150;28;660189;-63
2020/12/17 08:52:27;;;;;;;110.03;37.60;;;2.10;99.90;;;;;;4462606;28;659549;-62
2020/12/17 08:55:18;;;;;;;98.05;35.13;;;2.10;99.90;;;;;;4417921;28;660272;-62
2020/12/17 08:58:05;;;;;;;89.20;29.30;;;2.10;99.90;;;;;;4428631;28;658630;-62
2020/12/17 09:00:52;;;;;;;80.23;28.03;;;2.10;99.90;;;;;;4450529;28;659338;-61
2020/12/17 09:03:43;;;;;;;79.80;29.87;;;2.20;99.90;;;;;;4428064;28;659392;-63
2020/12/17 09:06:31;;;;;;;78.40;28.15;;;2.20;99.90;;;;;;4425625;28;658744;-62
2020/12/17 09:09:24;;;;;;;82.87;29.17;;;2.20;99.90;;;;;;4444893;28;658614;-63
2020/12/17 09:12:11;;;;;;;100.50;32.20;;;2.20;99.90;;;;;;4427154;28;659367;-62
2020/12/17 09:15:04;;;;;;;86.13;28.53;;;2.20;99.90;;;;;;4447446;28;659765;-63
2020/12/17 09:17:51;;;;;;;84.57;29.10;;;2.30;99.90;;;;;;4423544;28;659336;-62
2020/12/17 09:20:38;;;;;;;92.27;31.77;;;2.60;99.90;;;;;;4443681;28;658555;-62
2020/12/17 09:23:25;;;;;;;87.07;30.13;;;2.50;99.90;;;;;;4422696;28;658649;-62
2020/12/17 09:26:14;;;;;;;78.37;27.57;;;2.50;99.90;;;;;;4448212;28;659580;-62
2020/12/17 09:29:02;;;;;;;79.20;27.97;;;2.60;99.90;;;;;;4415617;28;659929;-62
2020/12/17 09:31:49;;;;;;;73.17;27.47;;;2.70;99.90;;;;;;4441393;28;658657;-63
2020/12/17 09:34:36;;;;;;;79.00;30.10;;;2.70;99.90;;;;;;4448221;28;658207;-62
2020/12/17 09:37:23;;;;;;;78.10;28.77;;;2.70;99.90;;;;;;4439082;28;658576;-62
2020/12/17 09:40:10;;;;;;;79.30;28.70;;;2.60;99.90;;;;;;4425768;28;659726;-62
2020/12/17 09:43:05;;;;;;;74.53;29.50;;;2.80;99.90;;;;;;4438356;28;660131;-63
2020/12/17 09:45:55;;;;;;;73.37;24.63;;;2.80;99.90;;;;;;4421023;28;659327;-62
2020/12/17 09:48:43;;;;;;;73.10;26.47;;;3.00;99.90;;;;;;4425748;28;658698;-62
2020/12/17 09:51:30;;;;;;;78.50;30.17;;;3.10;99.90;;;;;;4429436;28;659135;-61
2020/12/17 09:54:17;;;;;;;82.10;30.98;;;3.00;99.90;;;;;;4459643;28;659864;-61
2020/12/17 09:57:10;;;;;;;87.93;30.30;;;2.80;99.90;;;;;;4443663;28;659096;-63
2020/12/17 10:00:31;;;;;;;83.07;29.67;;;2.50;99.90;;;;;;4432399;28;659971;-62
2020/12/17 10:03:18;;;;;;;64.65;27.02;;;2.50;99.90;;;;;;4436748;28;658222;-62
2020/12/17 10:06:05;;;;;;;65.93;24.93;;;2.50;99.90;;;;;;4436445;28;658635;-61
2020/12/17 10:08:52;;;;;;;64.63;24.53;;;2.70;99.90;;;;;;4456297;28;658928;-61
2020/12/17 10:11:45;;;;;;;67.47;25.63;;;2.90;99.90;;;;;;4436249;28;658744;-61
2020/12/17 10:14:32;;;;;;;43.43;14.83;;;3.10;99.90;;;;;;4442998;28;660313;-62
2020/12/17 10:17:20;;;;;;;71.93;26.90;;;3.10;99.90;;;;;;4435237;28;659658;-63
2020/12/17 10:20:10;;;;;;;63.63;23.43;;;3.00;99.90;;;;;;4461854;28;659597;-61
2020/12/17 10:22:57;;;;;;;64.97;24.00;;;3.00;99.90;;;;;;4434493;28;659028;-62
2020/12/17 10:25:44;;;;;;;53.50;21.20;;;3.00;99.90;;;;;;4457897;27;659224;-63
2020/12/17 10:28:31;;;;;;;60.33;23.90;;;2.90;99.90;;;;;;4464919;28;658290;-62
2020/12/17 10:31:18;;;;;;;62.83;22.63;;;2.80;99.90;;;;;;4456430;28;659056;-62
2020/12/17 10:34:06;;;;;;;59.13;23.77;;;2.80;99.90;;;;;;4438230;28;658939;-62
2020/12/17 10:36:54;;;;;;;57.30;21.50;;;2.80;99.90;;;;;;4460653;28;659137;-63
2020/12/17 10:39:42;;;;;;;47.33;17.50;;;3.10;99.90;;;;;;4460581;28;658623;-61
2020/12/17 10:42:29;;;;;;;57.90;20.37;;;3.20;99.90;;;;;;4443046;28;659008;-61
2020/12/17 10:45:16;;;;;;;60.77;21.77;;;3.20;99.90;;;;;;4466640;27;660324;-62
2020/12/17 10:48:05;;;;;;;56.53;21.23;;;3.10;99.90;;;;;;4460640;28;659248;-61
2020/12/17 10:50:53;;;;;;;58.33;22.13;;;3.10;99.90;;;;;;4443603;28;660217;-61
2020/12/17 10:53:40;;;;;;;56.80;21.53;;;2.90;99.90;;;;;;4443290;28;658791;-61
2020/12/17 10:56:27;;;;;;;62.30;23.97;;;3.00;99.90;;;;;;4450190;28;660290;-62
2020/12/17 10:59:14;;;;;;;51.70;19.70;;;3.00;99.90;;;;;;4442358;28;659572;-62
2020/12/17 11:02:01;;;;;;;43.30;16.67;;;3.00;99.90;;;;;;4453818;28;660260;-61
2020/12/17 11:04:48;;;;;;;60.33;16.10;;;2.90;99.90;;;;;;4451159;28;658463;-62
2020/12/17 11:07:36;;;;;;;61.50;18.33;;;2.90;99.90;;;;;;4430363;28;658685;-61
2020/12/17 11:10:23;;;;;;;63.00;23.37;;;2.90;99.90;;;;;;4451348;28;659328;-61
2020/12/17 11:13:10;;;;;;;78.07;27.03;;;2.70;99.90;;;;;;4436121;28;658289;-61
2020/12/17 11:15:57;;;;;;;69.77;27.43;;;2.70;99.90;;;;;;4458793;28;660448;-62
2020/12/17 11:18:44;;;;;;;74.63;27.67;;;2.50;99.90;;;;;;4433100;28;659330;-63
2020/12/17 11:21:31;;;;;;;69.73;26.13;;;2.40;99.90;;;;;;4460709;28;659266;-62
2020/12/17 11:24:19;;;;;;;71.13;25.27;;;2.50;99.90;;;;;;4463486;28;660157;-62
2020/12/17 11:27:06;;;;;;;66.90;26.47;;;2.50;99.90;;;;;;4427808;28;660578;-61
2020/12/17 11:29:53;;;;;;;55.33;20.97;;;2.30;99.90;;;;;;4464526;28;659456;-61
2020/12/17 11:32:40;;;;;;;72.07;26.90;;;2.30;99.90;;;;;;4446488;28;658713;-61
2020/12/17 11:35:26;;;;;;;68.00;26.87;;;2.60;99.90;;;;;;4465626;28;660315;-62
2020/12/17 11:38:15;;;;;;;73.73;27.30;;;2.40;99.90;;;;;;4458380;28;658543;-62
2020/12/17 11:41:03;;;;;;;77.30;28.77;;;2.50;99.90;;;;;;4465111;28;660262;-61
2020/12/17 11:43:50;;;;;;;63.33;23.97;;;2.30;99.90;;;;;;4450124;28;658524;-61
2020/12/17 11:46:37;;;;;;;82.53;30.35;;;2.50;99.90;;;;;;4461180;28;660550;-61
2020/12/17 11:49:24;;;;;;;77.07;29.37;;;2.40;99.90;;;;;;4436185;28;661272;-63
2020/12/17 11:52:11;;;;;;;79.07;29.40;;;2.30;99.90;;;;;;4465211;28;658541;-61
2020/12/17 11:54:58;;;;;;;86.05;29.85;;;2.20;99.90;;;;;;4461030;28;659191;-62
2020/12/17 11:57:48;;;;;;;86.03;31.83;;;2.20;99.90;;;;;;4442048;28;658723;-61
2020/12/17 12:00:35;;;;;;;87.77;32.40;;;2.20;99.90;;;;;;4439733;28;658867;-61
2020/12/17 12:03:22;;;;;;;100.03;33.93;;;2.10;99.90;;;;;;4462849;28;659353;-62
2020/12/17 12:06:13;;;;;;;95.20;35.20;;;2.10;99.90;;;;;;4436666;28;659899;-63
2020/12/17 12:09:00;;;;;;;90.80;33.47;;;2.10;99.90;;;;;;4441176;28;659658;-62
2020/12/17 12:11:47;;;;;;;80.00;29.17;;;2.20;99.90;;;;;;4457530;28;660420;-61
2020/12/17 12:14:37;;;;;;;160.57;56.30;;;2.40;99.90;;;;;;4444883;28;658606;-62
2020/12/17 12:17:24;;;;;;;155.95;55.58;;;2.70;99.90;;;;;;4446655;28;659682;-63
2020/12/17 12:20:11;;;;;;;140.25;49.38;;;2.70;99.90;;;;;;4461395;28;660340;-61
2020/12/17 12:23:03;;;;;;;153.50;53.87;;;2.60;99.90;;;;;;4456241;28;659646;-62
2020/12/17 12:25:50;;;;;;;162.53;54.50;;;2.40;99.90;;;;;;4440219;28;660589;-61
2020/12/17 12:28:38;;;;;;;159.20;51.80;;;2.30;99.90;;;;;;4455148;28;659337;-61
2020/12/17 12:31:26;;;;;;;137.10;46.27;;;2.50;99.90;;;;;;4435214;28;659773;-61
2020/12/17 12:34:13;;;;;;;157.53;52.20;;;2.60;99.90;;;;;;4461188;28;659813;-62
2020/12/17 12:37:00;;;;;;;171.23;56.60;;;2.60;99.90;;;;;;4442764;28;660599;-61
2020/12/17 12:39:47;;;;;;;162.80;52.00;;;2.40;99.90;;;;;;4459957;28;661440;-61
2020/12/17 12:42:34;;;;;;;169.95;54.90;;;2.30;99.90;;;;;;4433771;28;661245;-63
2020/12/17 12:45:21;;;;;;;165.60;54.43;;;2.20;99.90;;;;;;4455026;28;659278;-61
2020/12/17 12:48:09;;;;;;;173.10;59.90;;;2.10;99.90;;;;;;4450352;28;660560;-61
2020/12/17 12:50:56;;;;;;;160.53;53.40;;;2.00;99.90;;;;;;4442461;28;661404;-62
2020/12/17 12:53:43;;;;;;;134.83;45.23;;;2.10;99.90;;;;;;4451101;28;659890;-62
2020/12/17 12:56:30;;;;;;;133.13;45.17;;;2.10;99.90;;;;;;4437514;28;660000;-62
2020/12/17 12:59:17;;;;;;;141.70;47.90;;;2.10;99.90;;;;;;4463372;28;660181;-61
2020/12/17 13:02:05;;;;;;;135.07;46.87;;;2.10;99.90;;;;;;4451472;28;661062;-63
2020/12/17 13:04:53;;;;;;;146.68;49.28;;;2.20;99.90;;;;;;4451886;28;660900;-61
2020/12/17 13:07:40;;;;;;;141.47;49.30;;;2.10;99.90;;;;;;4434638;28;659874;-62
2020/12/17 13:10:27;;;;;;;178.67;59.73;;;2.10;99.90;;;;;;4463215;28;660720;-61
2020/12/17 13:13:14;;;;;;;209.80;67.87;;;2.10;99.90;;;;;;4438401;28;659712;-62
2020/12/17 13:16:01;;;;;;;245.47;79.37;;;2.10;99.90;;;;;;4453703;28;659313;-63
2020/12/17 13:18:48;;;;;;;182.27;63.90;;;2.10;99.90;;;;;;4462842;28;660165;-61
2020/12/17 13:21:36;;;;;;;158.07;53.30;;;2.10;99.90;;;;;;4441110;28;659907;-61
2020/12/17 13:24:23;;;;;;;154.10;52.13;;;2.20;99.90;;;;;;4457369;28;660178;-61
2020/12/17 13:27:10;;;;;;;165.13;54.10;;;2.20;99.90;;;;;;4437344;28;659688;-61
2020/12/17 13:29:57;;;;;;;151.67;51.07;;;2.20;99.90;;;;;;4451657;28;660953;-61
2020/12/17 13:32:44;;;;;;;160.47;52.77;;;2.20;99.90;;;;;;4433754;28;660429;-63
2020/12/17 13:35:31;;;;;;;171.77;55.80;;;2.20;99.90;;;;;;4464177;28;660635;-62
2020/12/17 13:38:19;;;;;;;196.27;65.03;;;2.20;99.90;;;;;;4460417;28;659274;-61
2020/12/17 13:41:06;;;;;;;209.07;65.35;;;2.10;99.90;;;;;;4434096;28;660380;-62
2020/12/17 13:43:53;;;;;;;189.03;58.97;;;2.20;99.90;;;;;;4455943;28;660360;-61
2020/12/17 13:46:40;;;;;;;162.50;53.20;;;2.10;99.90;;;;;;4432090;28;659930;-61
2020/12/17 13:49:27;;;;;;;153.57;53.90;;;2.20;99.90;;;;;;4448991;28;660919;-61
2020/12/17 13:52:14;;;;;;;133.33;45.93;;;2.50;99.90;;;;;;4447265;28;659685;-63
2020/12/17 13:55:02;;;;;;;133.23;46.67;;;2.70;99.90;;;;;;4437994;28;661153;-62
2020/12/17 13:57:49;;;;;;;127.70;41.85;;;2.80;99.90;;;;;;4431602;28;660840;-62
2020/12/17 14:00:36;;;;;;;130.27;44.90;;;2.80;99.90;;;;;;4439157;28;660309;-62
2020/12/17 14:03:23;;;;;;;117.73;44.83;;;2.70;99.90;;;;;;4432587;28;661385;-61